Time;durP1;ratioP1;P1;durP2;ratioP2;P2;SDS_P1;SDS_P2;PMS_P1;PMS_P2;Temp;Humidity;BMP_temperature;BMP_pressure;BME280_temperature;BME280_humidity;BME280_pressure;Samples;Min_cycle;Max_cycle;Signal;HPM_P1;HPM_P2
2023/02/21 02:18:12;;;;;;;2.78;1.35;;;;;;;;;;12799818;19;20608;-71
2023/02/21 02:23:26;;;;;;;1.90;1.20;;;;;;;;;;12802392;19;20489;-68
2023/02/21 02:29:07;;;;;;;2.08;1.30;;;;;;;;;;12795559;19;21055;-68
2023/02/21 02:34:18;;;;;;;3.70;1.38;;;;;;;;;;12800624;19;20424;-71
2023/02/21 02:39:50;;;;;;;1.70;1.00;;;;;;;;;;12792723;19;20002;-68
2023/02/21 02:45:30;;;;;;;1.52;0.63;;;;;;;;;;12807744;19;20433;-70
2023/02/21 02:50:30;;;;;;;2.25;1.10;;;;;;;;;;12792261;19;20313;-68
2023/02/21 02:55:49;;;;;;;1.40;1.00;;;;;;;;;;12793054;19;20350;-69
2023/02/21 03:07:14;;;;;;;1.65;0.88;;;;;;;;;;12794171;19;20438;-69
2023/02/21 03:13:30;;;;;;;1.45;0.80;;;;;;;;;;12795117;19;20381;-69
2023/02/21 03:18:18;;;;;;;1.65;0.95;;;;;;;;;;12795658;19;20338;-68
2023/02/21 03:34:51;;;;;;;1.23;0.90;;;;;;;;;;12790687;19;20011;-68
2023/02/21 03:39:50;;;;;;;0.75;0.68;;;;;;;;;;12789288;19;20951;-68
2023/02/21 03:44:22;;;;;;;1.77;0.93;;;;;;;;;;12793330;19;20384;-68
2023/02/21 03:55:23;;;;;;;0.40;0.40;;;;;;;;;;12791266;19;20466;-67
2023/02/21 04:00:25;;;;;;;2.05;0.80;;;;;;;;;;12794916;19;20429;-68
2023/02/21 04:05:14;;;;;;;1.70;0.90;;;;;;;;;;12792127;19;20031;-68
2023/02/21 04:10:15;;;;;;;0.65;0.57;;;;;;;;;;12793159;19;20397;-68
2023/02/21 04:15:01;;;;;;;1.13;0.75;;;;;;;;;;12794670;19;20006;-68
2023/02/21 04:19:50;;;;;;;1.45;0.70;;;;;;;;;;12791378;19;20497;-69
2023/02/21 04:24:26;;;;;;;1.02;0.73;;;;;;;;;;12792744;19;20012;-68
2023/02/21 04:30:08;;;;;;;1.45;0.85;;;;;;;;;;12802938;19;20381;-68
2023/02/21 04:35:18;;;;;;;0.88;0.70;;;;;;;;;;12808087;19;20556;-68
2023/02/21 04:40:29;;;;;;;1.08;0.70;;;;;;;;;;12802583;19;20450;-68
2023/02/21 04:56:59;;;;;;;0.93;0.80;;;;;;;;;;12810801;19;20382;-68
2023/02/21 05:01:50;;;;;;;3.55;0.93;;;;;;;;;;12798181;19;20500;-68
2023/02/21 05:06:58;;;;;;;1.63;0.85;;;;;;;;;;12800903;19;20366;-68
2023/02/21 05:11:21;;;;;;;2.28;0.80;;;;;;;;;;12802261;19;20555;-69
2023/02/21 05:22:52;;;;;;;1.10;0.90;;;;;;;;;;12797968;19;20018;-70
2023/02/21 05:27:23;;;;;;;1.30;0.77;;;;;;;;;;12798744;19;20419;-70
2023/02/21 05:32:04;;;;;;;0.77;0.70;;;;;;;;;;12801700;19;20023;-69
2023/02/21 05:43:03;;;;;;;1.88;1.13;;;;;;;;;;12788633;19;20290;-70
2023/02/21 05:47:47;;;;;;;1.20;0.90;;;;;;;;;;12794825;19;20010;-69
2023/02/21 05:52:12;;;;;;;2.03;1.10;;;;;;;;;;12804491;19;20015;-72
2023/02/21 06:03:05;;;;;;;2.60;1.17;;;;;;;;;;12804617;19;20471;-69
2023/02/21 06:07:52;;;;;;;2.17;1.40;;;;;;;;;;12805062;19;20436;-69
2023/02/21 06:12:54;;;;;;;;;;;;;;;;;;12805877;19;20313;-73
2023/02/21 06:17:50;;;;;;;1.15;1.00;;;;;;;;;;12801596;19;20356;-70
2023/02/21 06:28:14;;;;;;;2.08;1.55;;;;;;;;;;12795250;19;20440;-69
2023/02/21 06:32:48;;;;;;;2.25;1.20;;;;;;;;;;12803150;19;20304;-73
2023/02/21 06:49:01;;;;;;;4.65;1.58;;;;;;;;;;12797521;19;20326;-70
2023/02/21 06:53:27;;;;;;;4.32;1.50;;;;;;;;;;12801045;19;20474;-71
2023/02/21 07:04:49;;;;;;;2.55;1.10;;;;;;;;;;12791464;19;20303;-73
2023/02/21 07:09:52;;;;;;;2.35;1.30;;;;;;;;;;12797527;19;20453;-70
2023/02/21 07:14:56;;;;;;;1.80;1.02;;;;;;;;;;12793080;19;20085;-70
2023/02/21 07:26:38;;;;;;;4.57;1.50;;;;;;;;;;12802637;19;20003;-70
2023/02/21 07:31:15;;;;;;;2.87;1.20;;;;;;;;;;12803406;19;20321;-70
2023/02/21 07:36:18;;;;;;;2.78;1.42;;;;;;;;;;12801289;19;20307;-71
2023/02/21 07:41:18;;;;;;;3.75;2.13;;;;;;;;;;12801658;19;20014;-71
2023/02/21 07:46:57;;;;;;;2.13;1.38;;;;;;;;;;12800247;19;20936;-69
2023/02/21 07:51:55;;;;;;;1.80;1.17;;;;;;;;;;12790943;19;20506;-70
2023/02/21 07:56:51;;;;;;;3.15;1.30;;;;;;;;;;12793307;19;20783;-70
2023/02/21 08:01:28;;;;;;;3.25;1.50;;;;;;;;;;12799346;19;20361;-70
2023/02/21 08:05:48;;;;;;;2.22;1.30;;;;;;;;;;12800673;19;20310;-70
2023/02/21 08:10:54;;;;;;;3.70;1.65;;;;;;;;;;12804110;19;20430;-70
2023/02/21 08:15:53;;;;;;;1.98;1.20;;;;;;;;;;12797377;19;20307;-69
2023/02/21 08:20:47;;;;;;;2.80;1.27;;;;;;;;;;12800621;19;20318;-70
2023/02/21 08:25:18;;;;;;;2.13;1.20;;;;;;;;;;12801169;19;20014;-70
2023/02/21 08:35:58;;;;;;;3.30;2.05;;;;;;;;;;12791175;19;20041;-70
2023/02/21 08:41:04;;;;;;;1.58;1.08;;;;;;;;;;12789792;19;20025;-72
2023/02/21 08:45:29;;;;;;;4.78;2.03;;;;;;;;;;12788571;19;20967;-69
2023/02/21 08:56:54;;;;;;;2.15;1.33;;;;;;;;;;12787233;19;20011;-69
2023/02/21 09:01:56;;;;;;;3.90;2.00;;;;;;;;;;12784853;19;20006;-69
2023/02/21 09:06:17;;;;;;;3.28;1.88;;;;;;;;;;12788905;19;20382;-70
2023/02/21 09:11:12;;;;;;;2.35;1.20;;;;;;;;;;12791238;19;20010;-74
2023/02/21 09:21:29;;;;;;;2.20;1.33;;;;;;;;;;12799432;19;20437;-70
2023/02/21 09:26:09;;;;;;;1.88;1.13;;;;;;;;;;12802388;19;20039;-70
2023/02/21 09:30:49;;;;;;;1.52;1.20;;;;;;;;;;12810884;19;20363;-70
2023/02/21 09:35:31;;;;;;;2.45;1.33;;;;;;;;;;12812485;19;20520;-69
2023/02/21 09:41:24;;;;;;;2.85;1.42;;;;;;;;;;12801464;19;20010;-69
2023/02/21 09:46:20;;;;;;;3.22;1.10;;;;;;;;;;12797263;19;20472;-72
2023/02/21 09:51:07;;;;;;;2.13;1.27;;;;;;;;;;12802519;19;20377;-69
2023/02/21 10:03:02;;;;;;;1.73;1.10;;;;;;;;;;12795862;19;20335;-69
2023/02/21 10:08:16;;;;;;;2.80;1.35;;;;;;;;;;12796652;19;20025;-69
2023/02/21 10:24:56;;;;;;;1.00;0.90;;;;;;;;;;12810139;19;20343;-70
2023/02/21 10:29:29;;;;;;;1.45;1.13;;;;;;;;;;12804427;19;20460;-69
2023/02/21 10:34:04;;;;;;;1.08;0.47;;;;;;;;;;12809027;19;20010;-69
2023/02/21 10:44:34;;;;;;;2.00;1.20;;;;;;;;;;12807113;19;20286;-70
2023/02/21 10:49:54;;;;;;;2.95;1.00;;;;;;;;;;12799716;19;20011;-71
2023/02/21 10:54:22;;;;;;;2.55;1.27;;;;;;;;;;12801293;19;20432;-70
2023/02/21 10:59:19;;;;;;;3.45;1.20;;;;;;;;;;12806043;19;20488;-75
2023/02/21 11:10:33;;;;;;;1.50;0.80;;;;;;;;;;12801567;19;20652;-73
2023/02/21 11:15:17;;;;;;;9.30;1.45;;;;;;;;;;12806006;19;20348;-70
2023/02/21 11:26:31;;;;;;;4.95;1.25;;;;;;;;;;12794316;19;20022;-70
2023/02/21 11:31:52;;;;;;;1.17;0.73;;;;;;;;;;12801399;19;20984;-71
2023/02/21 11:36:48;;;;;;;2.42;1.27;;;;;;;;;;12800945;19;20437;-70
2023/02/21 11:53:49;;;;;;;2.03;1.00;;;;;;;;;;12794682;19;20314;-70
2023/02/21 11:58:20;;;;;;;1.52;1.05;;;;;;;;;;12805505;19;20501;-70
2023/02/21 12:03:48;;;;;;;2.25;1.08;;;;;;;;;;12804526;19;20875;-70
2023/02/21 12:09:48;;;;;;;2.78;0.63;;;;;;;;;;12800422;19;20341;-71
2023/02/21 12:15:48;;;;;;;2.75;1.10;;;;;;;;;;12793225;19;20089;-70
2023/02/21 12:20:54;;;;;;;0.73;0.65;;;;;;;;;;12792566;19;20300;-70
2023/02/21 12:26:19;;;;;;;2.85;1.40;;;;;;;;;;12790531;19;20683;-71
2023/02/21 12:32:52;;;;;;;1.52;0.70;;;;;;;;;;12799730;19;20510;-70
2023/02/21 12:37:53;;;;;;;2.30;1.40;;;;;;;;;;12787623;19;20003;-70
2023/02/21 12:49:15;;;;;;;2.00;1.02;;;;;;;;;;12801996;19;20434;-70
2023/02/21 12:55:13;;;;;;;1.58;0.80;;;;;;;;;;12803564;19;20327;-70
2023/02/21 13:01:18;;;;;;;1.20;0.77;;;;;;;;;;12810914;19;20330;-70
2023/02/21 13:13:31;;;;;;;2.08;1.20;;;;;;;;;;12813149;19;20509;-69
2023/02/21 13:19:16;;;;;;;1.67;1.00;;;;;;;;;;12809648;19;20026;-69
2023/02/21 13:24:28;;;;;;;2.85;1.40;;;;;;;;;;12804548;19;20472;-69
2023/02/21 13:29:09;;;;;;;3.17;1.10;;;;;;;;;;12806718;19;20433;-73
2023/02/21 13:34:25;;;;;;;2.05;1.02;;;;;;;;;;12813913;19;20481;-71
2023/02/21 13:40:23;;;;;;;2.03;1.33;;;;;;;;;;12800980;19;20623;-70
2023/02/21 13:45:55;;;;;;;1.33;0.88;;;;;;;;;;12802984;19;20319;-69
2023/02/21 13:50:53;;;;;;;3.10;1.67;;;;;;;;;;12795357;19;20027;-70
2023/02/21 13:56:09;;;;;;;2.33;1.02;;;;;;;;;;12804505;19;20434;-69
2023/02/21 14:01:27;;;;;;;1.02;0.82;;;;;;;;;;12801758;19;20541;-69
2023/02/21 14:11:53;;;;;;;;;;;;;;;;;;12800728;19;20547;-70
2023/02/21 14:21:31;;;;;;;2.55;1.20;;;;;;;;;;12799288;19;20326;-69
2023/02/21 14:26:56;;;;;;;2.60;1.53;;;;;;;;;;12800779;19;20445;-69
2023/02/21 14:32:24;;;;;;;3.13;1.10;;;;;;;;;;12800313;19;20277;-70
2023/02/21 14:37:14;;;;;;;2.90;1.25;;;;;;;;;;12796767;19;20511;-70
2023/02/21 14:54:20;;;;;;;2.15;1.08;;;;;;;;;;12807567;19;20314;-73
2023/02/21 14:59:21;;;;;;;1.25;0.90;;;;;;;;;;12807637;19;20421;-70
2023/02/21 15:04:52;;;;;;;1.30;0.90;;;;;;;;;;12807679;19;20481;-69
2023/02/21 15:10:47;;;;;;;1.75;1.10;;;;;;;;;;12796899;19;20456;-71
2023/02/21 15:15:47;;;;;;;2.00;1.15;;;;;;;;;;12806396;19;20892;-72
2023/02/21 15:20:21;;;;;;;2.58;1.25;;;;;;;;;;12803242;19;20455;-71
2023/02/21 15:31:16;;;;;;;1.48;0.88;;;;;;;;;;12800478;19;20974;-69
2023/02/21 15:36:22;;;;;;;3.90;1.77;;;;;;;;;;12797947;19;20136;-69
2023/02/21 15:41:29;;;;;;;2.58;1.52;;;;;;;;;;12797065;19;20421;-69
2023/02/21 15:46:49;;;;;;;2.08;1.35;;;;;;;;;;12799659;19;20470;-72
2023/02/21 15:52:47;;;;;;;2.33;1.42;;;;;;;;;;12794828;19;20318;-72
2023/02/21 15:57:27;;;;;;;3.50;1.92;;;;;;;;;;12802616;19;20437;-70
2023/02/21 16:02:25;;;;;;;3.78;1.52;;;;;;;;;;12801036;19;20440;-69
2023/02/21 16:13:47;;;;;;;6.22;2.30;;;;;;;;;;12802931;19;20362;-70
2023/02/21 16:19:02;;;;;;;0.25;0.25;;;;;;;;;;12806823;19;20449;-70
2023/02/21 16:23:49;;;;;;;4.55;1.60;;;;;;;;;;12804884;19;20311;-70
2023/02/21 16:34:57;;;;;;;9.35;4.25;;;;;;;;;;12817597;19;20327;-69
2023/02/21 16:39:23;;;;;;;10.25;2.80;;;;;;;;;;12811740;19;20602;-70
2023/02/21 16:44:03;;;;;;;6.20;2.42;;;;;;;;;;12812280;19;20010;-70
2023/02/21 16:48:49;;;;;;;11.20;5.28;;;;;;;;;;12808619;19;20310;-69
2023/02/21 16:53:27;;;;;;;10.77;4.38;;;;;;;;;;12811016;19;20438;-69
2023/02/21 16:58:28;;;;;;;13.82;4.13;;;;;;;;;;12800730;19;20433;-69
2023/02/21 17:03:46;;;;;;;6.88;3.40;;;;;;;;;;12805290;19;20453;-70
2023/02/21 17:08:13;;;;;;;9.25;3.55;;;;;;;;;;12804110;19;20505;-69
2023/02/21 17:18:51;;;;;;;21.98;8.82;;;;;;;;;;12797300;19;20078;-69
2023/02/21 17:24:10;;;;;;;18.70;7.82;;;;;;;;;;12800998;19;20476;-70
2023/02/21 17:28:48;;;;;;;9.38;4.70;;;;;;;;;;12801926;19;20322;-69
2023/02/21 17:34:20;;;;;;;13.38;4.93;;;;;;;;;;12803188;19;20518;-70
2023/02/21 17:39:57;;;;;;;12.82;5.43;;;;;;;;;;12795362;19;20323;-69
2023/02/21 17:44:52;;;;;;;7.55;4.20;;;;;;;;;;12803927;19;20346;-69
2023/02/21 17:49:49;;;;;;;12.15;3.95;;;;;;;;;;12800667;19;20014;-73
2023/02/21 17:55:27;;;;;;;7.80;2.78;;;;;;;;;;12798356;19;20619;-69
2023/02/21 18:00:54;;;;;;;11.77;4.55;;;;;;;;;;12788873;19;20363;-69
2023/02/21 18:10:51;;;;;;;15.93;4.05;;;;;;;;;;12795704;19;20449;-72
2023/02/21 18:15:23;;;;;;;14.05;5.63;;;;;;;;;;12799588;19;20332;-69
2023/02/21 18:25:46;;;;;;;27.25;8.43;;;;;;;;;;12795292;19;20325;-69
2023/02/21 18:30:58;;;;;;;23.52;6.35;;;;;;;;;;12795656;19;20430;-69
2023/02/21 18:35:50;;;;;;;13.32;4.95;;;;;;;;;;12801480;19;20460;-70
2023/02/21 18:40:32;;;;;;;;;;;;;;;;;;12800636;19;20445;-69
2023/02/21 18:50:54;;;;;;;4.93;1.90;;;;;;;;;;12802941;19;20010;-70
2023/02/21 18:55:50;;;;;;;8.00;2.75;;;;;;;;;;12804469;19;20456;-69
2023/02/21 19:00:51;;;;;;;;;;;;;;;;;;12806855;19;20458;-69
2023/02/21 19:11:26;;;;;;;7.80;2.70;;;;;;;;;;12791987;19;20567;-70
2023/02/21 19:15:59;;;;;;;11.55;3.63;;;;;;;;;;12792073;19;20449;-69
2023/02/21 19:20:28;;;;;;;20.55;6.70;;;;;;;;;;12799873;19;20425;-69
2023/02/21 19:31:27;;;;;;;12.90;4.75;;;;;;;;;;12793298;19;20450;-69
2023/02/21 19:36:49;;;;;;;20.10;5.57;;;;;;;;;;12791855;19;20007;-69
2023/02/21 19:41:24;;;;;;;20.45;6.90;;;;;;;;;;12799025;19;20477;-69
2023/02/21 19:47:27;;;;;;;9.30;4.70;;;;;;;;;;12805742;19;20369;-69
2023/02/21 19:53:09;;;;;;;19.80;6.03;;;;;;;;;;12795522;19;20435;-69
2023/02/21 19:57:55;;;;;;;47.17;13.85;;;;;;;;;;12788832;19;20010;-69
2023/02/21 20:02:50;;;;;;;37.55;9.90;;;;;;;;;;12802117;19;20472;-69
2023/02/21 20:07:21;;;;;;;32.92;9.52;;;;;;;;;;12793813;19;20357;-69
2023/02/21 20:19:26;;;;;;;11.32;4.78;;;;;;;;;;12804614;19;20013;-69
2023/02/21 20:24:15;;;;;;;11.25;3.80;;;;;;;;;;12796179;19;20445;-69
2023/02/21 20:28:57;;;;;;;26.00;6.85;;;;;;;;;;12799954;19;20452;-69
2023/02/21 20:33:30;;;;;;;24.15;8.00;;;;;;;;;;12799198;19;20438;-69
2023/02/21 20:44:58;;;;;;;23.80;6.75;;;;;;;;;;12797999;19;20724;-69
2023/02/21 20:50:19;;;;;;;14.20;4.60;;;;;;;;;;12794698;19;20559;-70
2023/02/21 20:55:08;;;;;;;16.65;4.70;;;;;;;;;;12798030;19;20472;-72
2023/02/21 20:59:46;;;;;;;13.02;5.00;;;;;;;;;;12798736;19;20476;-72
2023/02/21 21:05:26;;;;;;;20.13;5.88;;;;;;;;;;12799766;19;20354;-69
2023/02/21 21:10:19;;;;;;;18.38;4.53;;;;;;;;;;12797377;19;20315;-71
2023/02/21 21:14:56;;;;;;;13.63;4.53;;;;;;;;;;12800111;19;20445;-70
2023/02/21 21:25:53;;;;;;;14.25;4.70;;;;;;;;;;12797829;19;20383;-69
2023/02/21 21:30:54;;;;;;;31.95;8.68;;;;;;;;;;12799198;19;20018;-73
2023/02/21 21:35:57;;;;;;;25.77;6.22;;;;;;;;;;12804235;19;20468;-72
2023/02/21 21:40:27;;;;;;;;;;;;;;;;;;12804778;19;20447;-69
2023/02/21 21:56:56;;;;;;;14.50;4.80;;;;;;;;;;12800325;19;20647;-69
2023/02/21 22:02:01;;;;;;;11.60;3.83;;;;;;;;;;12804477;19;20015;-69
2023/02/21 22:12:59;;;;;;;14.73;5.10;;;;;;;;;;12797072;19;20014;-72
2023/02/21 22:18:03;;;;;;;24.02;6.05;;;;;;;;;;12801565;19;20336;-69
2023/02/21 22:23:01;;;;;;;19.10;5.43;;;;;;;;;;12798469;19;20341;-69
2023/02/21 22:27:48;;;;;;;14.57;5.10;;;;;;;;;;12798572;19;20015;-69
2023/02/21 22:44:08;;;;;;;60.13;15.18;;;;;;;;;;12800725;19;20003;-71
2023/02/21 22:49:10;;;;;;;78.07;18.13;;;;;;;;;;12804620;19;20585;-69
2023/02/21 22:59:56;;;;;;;18.38;6.30;;;;;;;;;;12793690;19;20311;-69
2023/02/21 23:04:49;;;;;;;16.85;4.90;;;;;;;;;;12796577;19;20354;-69
2023/02/21 23:09:13;;;;;;;14.55;4.13;;;;;;;;;;12798058;19;20440;-69
2023/02/21 23:19:51;;;;;;;14.50;4.72;;;;;;;;;;12806531;19;20489;-69
2023/02/21 23:24:53;;;;;;;10.60;3.75;;;;;;;;;;12798830;19;20442;-69
2023/02/21 23:29:28;;;;;;;15.88;4.78;;;;;;;;;;12801440;19;20384;-69
2023/02/21 23:41:15;;;;;;;12.55;4.57;;;;;;;;;;12794427;19;20637;-69
2023/02/21 23:46:29;;;;;;;14.48;4.65;;;;;;;;;;12793930;19;20981;-69
2023/02/21 23:51:08;;;;;;;18.63;6.07;;;;;;;;;;12797630;19;20489;-69
